Time,TemperatureF,DewpointF,PressureIn,WindDirection,WindDirectionDegrees,WindSpeedMPH,WindSpeedGustMPH,Humidity,HourlyPrecipIn,Conditions,Clouds,dailyrainin,SoftwareType,DateUTC
2013-03-15 00:00:00,36.3,30.1,30.01,SW,223,2.0,4.0,78,0.00,,,0.20,VWS V14.01,2013-03-15 05:00:00,
2013-03-15 00:02:00,34.1,29.8,30.01,SW,220,0.0,3.0,84,0.00,,,0.00,VWS V14.01,2013-03-15 05:02:00,
2013-03-15 00:05:00,36.2,30.0,30.01,SW,223,2.0,5.0,78,0.00,,,0.20,VWS V14.01,2013-03-15 05:05:00,
2013-03-15 00:07:00,34.0,29.7,30.01,SW,219,2.0,2.0,84,0.00,,,0.00,VWS V14.01,2013-03-15 05:07:00,
2013-03-15 00:10:00,36.2,30.0,30.01,SW,223,2.0,3.0,78,0.00,,,0.20,VWS V14.01,2013-03-15 05:10:00,
2013-03-15 00:12:00,34.0,30.0,30.00,SW,220,0.0,0.0,85,0.00,,,0.00,VWS V14.01,2013-03-15 05:12:00,
2013-03-15 00:15:00,36.0,29.8,30.01,SW,223,2.0,5.0,78,0.00,,,0.20,VWS V14.01,2013-03-15 05:15:00,
2013-03-15 00:17:00,34.0,29.7,30.01,SW,220,2.0,2.0,84,0.00,,,0.00,VWS V14.01,2013-03-15 05:17:00,
2013-03-15 00:20:00,35.9,30.0,30.01,SW,223,2.0,3.0,79,0.00,,,0.20,VWS V14.01,2013-03-15 05:20:00,
2013-03-15 00:22:00,34.0,29.7,30.01,SW,220,0.0,3.0,84,0.00,,,0.00,VWS V14.01,2013-03-15 05:22:00,
2013-03-15 00:25:00,35.7,29.8,30.01,SW,222,0.0,3.0,79,0.00,,,0.20,VWS V14.01,2013-03-15 05:25:00,
2013-03-15 00:27:00,34.0,29.7,30.00,SW,220,0.0,1.0,84,0.00,,,0.00,VWS V14.01,2013-03-15 05:27:00,
2013-03-15 00:30:00,35.5,30.0,30.01,SW,223,1.0,3.0,80,0.00,,,0.20,VWS V14.01,2013-03-15 05:30:00,
2013-03-15 00:32:00,34.0,29.7,30.00,SW,220,0.0,0.0,84,0.00,,,0.00,VWS V14.01,2013-03-15 05:32:00,
2013-03-15 00:35:00,35.4,29.9,30.01,SW,223,0.0,4.0,80,0.00,,,0.20,VWS V14.01,2013-03-15 05:35:00,
2013-03-15 00:37:00,33.8,29.5,30.00,SW,220,0.0,2.0,84,0.00,,,0.00,VWS V14.01,2013-03-15 05:37:00,
2013-03-15 00:40:00,35.3,29.8,30.01,SW,223,0.0,3.0,80,0.00,,,0.20,VWS V14.01,2013-03-15 05:40:00,
2013-03-15 00:42:00,33.6,29.6,30.00,SW,219,0.0,0.0,85,0.00,,,0.00,VWS V14.01,2013-03-15 05:42:00,
2013-03-15 00:45:00,35.2,29.7,30.02,SW,223,0.0,4.0,80,0.00,,,0.20,VWS V14.01,2013-03-15 05:45:00,
2013-03-15 00:47:00,33.4,29.4,30.00,SW,219,0.0,0.0,85,0.00,,,0.00,VWS V14.01,2013-03-15 05:47:00,
2013-03-15 00:50:00,35.1,29.9,30.02,SW,217,0.0,3.0,81,0.00,,,0.20,VWS V14.01,2013-03-15 05:50:00,
2013-03-15 00:53:00,33.3,29.3,30.01,SW,220,0.0,0.0,85,0.00,,,0.00,VWS V14.01,2013-03-15 05:53:00,
2013-03-15 00:55:00,35.0,29.8,30.02,SW,218,0.0,5.0,81,0.00,,,0.20,VWS V14.01,2013-03-15 05:55:00,
2013-03-15 00:58:00,33.2,29.2,30.00,SW,220,0.0,0.0,85,0.00,,,0.00,VWS V14.01,2013-03-15 05:58:00,
2013-03-15 01:00:00,34.9,30.0,30.02,SW,218,3.0,5.0,82,0.00,,,0.20,VWS V14.01,2013-03-15 06:00:00,
2013-03-15 01:03:00,33.3,29.3,30.00,SW,220,0.0,0.0,85,0.00,,,0.00,VWS V14.01,2013-03-15 06:03:00,
2013-03-15 01:05:00,34.8,29.9,30.02,SW,218,1.0,3.0,82,0.00,,,0.20,VWS V14.01,2013-03-15 06:05:00,
2013-03-15 01:08:00,33.3,29.3,30.01,SW,219,1.0,1.0,85,0.00,,,0.00,VWS V14.01,2013-03-15 06:08:00,
2013-03-15 01:10:00,34.7,29.8,30.02,SW,218,0.0,4.0,82,0.00,,,0.20,VWS V14.01,2013-03-15 06:10:00,
2013-03-15 01:13:00,33.4,29.4,30.01,WSW,238,0.0,0.0,85,0.00,,,0.00,VWS V14.01,2013-03-15 06:13:00,
2013-03-15 01:15:00,34.5,29.6,30.02,SW,218,0.0,3.0,82,0.00,,,0.20,VWS V14.01,2013-03-15 06:15:00,
2013-03-15 01:18:00,33.4,29.4,30.01,WSW,238,0.0,2.0,85,0.00,,,0.00,VWS V14.01,2013-03-15 06:18:00,
2013-03-15 01:20:00,34.4,29.8,30.02,SW,218,0.0,2.0,83,0.00,,,0.20,VWS V14.01,2013-03-15 06:20:00,
2013-03-15 01:23:00,33.4,29.4,30.01,WSW,238,0.0,2.0,85,0.00,,,0.00,VWS V14.01,2013-03-15 06:23:00,
2013-03-15 01:25:00,34.4,29.8,30.02,SW,218,0.0,2.0,83,0.00,,,0.20,VWS V14.01,2013-03-15 06:25:00,
2013-03-15 01:28:00,33.5,29.8,30.01,WSW,249,3.0,3.0,86,0.00,,,0.00,VWS V14.01,2013-03-15 06:28:00,
2013-03-15 01:30:00,34.4,29.8,30.02,SSW,213,0.0,4.0,83,0.00,,,0.20,VWS V14.01,2013-03-15 06:30:00,
2013-03-15 01:33:00,33.6,29.9,30.01,NNE,19,1.0,4.0,86,0.00,,,0.00,VWS V14.01,2013-03-15 06:33:00,
2013-03-15 01:35:00,34.4,29.8,30.02,SSW,213,0.0,3.0,83,0.00,,,0.20,VWS V14.01,2013-03-15 06:35:00,
2013-03-15 01:38:00,33.7,30.0,30.01,NNE,19,1.0,3.0,86,0.00,,,0.00,VWS V14.01,2013-03-15 06:38:00,
2013-03-15 01:40:00,34.4,30.1,30.01,SW,221,0.0,4.0,84,0.00,,,0.20,VWS V14.01,2013-03-15 06:40:00,
2013-03-15 01:43:00,33.9,30.2,30.01,NNE,19,0.0,0.0,86,0.00,,,0.00,VWS V14.01,2013-03-15 06:43:00,
2013-03-15 01:45:00,34.4,30.1,30.01,SW,220,0.0,3.0,84,0.00,,,0.20,VWS V14.01,2013-03-15 06:45:00,
2013-03-15 01:48:00,34.0,30.3,30.01,North,355,2.0,4.0,86,0.00,,,0.00,VWS V14.01,2013-03-15 06:48:00,
2013-03-15 01:50:00,34.2,29.9,30.01,SW,219,0.0,4.0,84,0.00,,,0.20,VWS V14.01,2013-03-15 06:50:00,
2013-03-15 01:53:00,34.2,30.5,30.01,North,5,0.0,5.0,86,0.00,,,0.00,VWS V14.01,2013-03-15 06:53:00,
2013-03-15 01:55:00,34.1,29.8,30.01,SW,220,2.0,3.0,84,0.00,,,0.20,VWS V14.01,2013-03-15 06:55:00,
2013-03-15 01:58:00,34.3,30.3,30.01,North,360,5.0,7.0,85,0.00,,,0.00,VWS V14.01,2013-03-15 06:58:00,
2013-03-15 02:00:00,34.1,29.8,30.01,SW,220,3.0,3.0,84,0.00,,,0.20,VWS V14.01,2013-03-15 07:00:00,
2013-03-15 02:03:00,34.4,30.1,30.01,NNE,24,5.0,7.0,84,0.00,,,0.00,VWS V14.01,2013-03-15 07:03:00,
2013-03-15 02:05:00,34.0,29.7,30.01,SW,220,1.0,3.0,84,0.00,,,0.00,VWS V14.01,2013-03-15 07:05:00,
2013-03-15 02:08:00,34.4,29.8,30.01,North,9,7.0,8.0,83,0.00,,,0.00,VWS V14.01,2013-03-15 07:08:00,
2013-03-15 02:10:00,34.0,30.0,30.00,SW,220,0.0,2.0,85,0.00,,,0.00,VWS V14.01,2013-03-15 07:10:00,
2013-03-15 02:13:00,34.4,29.5,30.02,North,355,1.0,6.0,82,0.00,,,0.00,VWS V14.01,2013-03-15 07:13:00,
2013-03-15 02:15:00,34.0,29.7,30.01,SW,219,1.0,2.0,84,0.00,,,0.00,VWS V14.01,2013-03-15 07:15:00,
2013-03-15 02:18:00,34.4,29.5,30.02,NNW,345,5.0,9.0,82,0.00,,,0.00,VWS V14.01,2013-03-15 07:18:00,
2013-03-15 02:20:00,34.0,29.7,30.01,SW,219,1.0,3.0,84,0.00,,,0.00,VWS V14.01,2013-03-15 07:20:00,
2013-03-15 02:23:00,34.4,29.2,30.02,North,355,2.0,5.0,81,0.00,,,0.00,VWS V14.01,2013-03-15 07:23:00,
2013-03-15 02:25:00,34.0,29.7,30.00,SW,219,0.0,3.0,84,0.00,,,0.00,VWS V14.01,2013-03-15 07:25:00,
2013-03-15 02:28:00,34.4,29.2,30.02,NNW,330,6.0,6.0,81,0.00,,,0.00,VWS V14.01,2013-03-15 07:28:00,
2013-03-15 02:30:00,33.9,29.6,30.00,SW,219,0.0,3.0,84,0.00,,,0.00,VWS V14.01,2013-03-15 07:30:00,
2013-03-15 02:34:00,34.4,29.2,30.02,North,360,3.0,10.0,81,0.00,,,0.00,VWS V14.01,2013-03-15 07:34:00,
2013-03-15 02:35:00,33.8,29.5,30.00,SW,219,2.0,2.0,84,0.00,,,0.00,VWS V14.01,2013-03-15 07:35:00,
2013-03-15 02:39:00,34.4,29.2,30.02,NNE,18,1.0,4.0,81,0.00,,,0.00,VWS V14.01,2013-03-15 07:39:00,
2013-03-15 02:40:00,33.7,29.7,30.00,SW,220,0.0,2.0,85,0.00,,,0.00,VWS V14.01,2013-03-15 07:40:00,
2013-03-15 02:44:00,34.2,29.0,30.02,NNE,19,6.0,8.0,81,0.00,,,0.00,VWS V14.01,2013-03-15 07:44:00,
2013-03-15 02:45:00,33.5,29.5,30.00,SW,219,0.0,0.0,85,0.00,,,0.00,VWS V14.01,2013-03-15 07:45:00,
2013-03-15 02:49:00,34.1,28.6,30.02,North,10,3.0,8.0,80,0.00,,,0.00,VWS V14.01,2013-03-15 07:49:00,
2013-03-15 02:50:00,33.3,29.3,30.01,SW,220,0.0,2.0,85,0.00,,,0.00,VWS V14.01,2013-03-15 07:50:00,
2013-03-15 02:54:00,34.0,28.5,30.02,NNE,13,4.0,7.0,80,0.00,,,0.00,VWS V14.01,2013-03-15 07:54:00,
2013-03-15 02:55:00,33.2,29.2,30.00,SW,219,0.0,0.0,85,0.00,,,0.00,VWS V14.01,2013-03-15 07:55:00,
2013-03-15 02:59:00,33.9,28.7,30.02,NNE,13,2.0,5.0,81,0.00,,,0.00,VWS V14.01,2013-03-15 07:59:00,
2013-03-15 03:00:00,33.3,29.3,30.00,SW,219,0.0,0.0,85,0.00,,,0.00,VWS V14.01,2013-03-15 08:00:00,
2013-03-15 03:04:00,33.8,28.6,30.02,North,355,4.0,4.0,81,0.00,,,0.00,VWS V14.01,2013-03-15 08:04:00,
2013-03-15 03:05:00,33.2,29.2,30.00,SW,220,0.0,3.0,85,0.00,,,0.00,VWS V14.01,2013-03-15 08:05:00,
2013-03-15 03:09:00,33.7,28.5,30.02,NNW,338,5.0,7.0,81,0.00,,,0.00,VWS V14.01,2013-03-15 08:09:00,
2013-03-15 03:10:00,33.3,29.3,30.01,WSW,238,0.0,3.0,85,0.00,,,0.00,VWS V14.01,2013-03-15 08:10:00,
2013-03-15 03:14:00,33.6,28.4,30.02,NNW,342,2.0,6.0,81,0.00,,,0.00,VWS V14.01,2013-03-15 08:14:00,
2013-03-15 03:15:00,33.4,29.4,30.01,WSW,237,0.0,2.0,85,0.00,,,0.00,VWS V14.01,2013-03-15 08:15:00,
2013-03-15 03:19:00,33.5,28.6,30.02,NNE,18,4.0,5.0,82,0.00,,,0.00,VWS V14.01,2013-03-15 08:19:00,
2013-03-15 03:20:00,33.4,29.4,30.01,WSW,237,0.0,2.0,85,0.00,,,0.00,VWS V14.01,2013-03-15 08:20:00,
2013-03-15 03:24:00,33.4,28.5,30.02,NNE,19,2.0,6.0,82,0.00,,,0.00,VWS V14.01,2013-03-15 08:24:00,
2013-03-15 03:25:00,33.4,29.7,30.01,WSW,238,0.0,2.0,86,0.00,,,0.00,VWS V14.01,2013-03-15 08:25:00,
2013-03-15 03:29:00,33.3,28.4,30.02,NNE,18,2.0,3.0,82,0.00,,,0.00,VWS V14.01,2013-03-15 08:29:00,
2013-03-15 03:30:00,33.6,29.9,30.01,NNE,22,2.0,4.0,86,0.00,,,0.00,VWS V14.01,2013-03-15 08:30:00,
2013-03-15 03:34:00,33.2,28.0,30.02,North,360,0.0,8.0,81,0.00,,,0.00,VWS V14.01,2013-03-15 08:34:00,
2013-03-15 03:35:00,33.7,30.0,30.01,NNE,19,1.0,4.0,86,0.00,,,0.00,VWS V14.01,2013-03-15 08:35:00,
2013-03-15 03:39:00,33.1,27.9,30.02,North,355,2.0,6.0,81,0.00,,,0.00,VWS V14.01,2013-03-15 08:39:00,
2013-03-15 03:40:00,33.8,30.1,30.01,NNE,19,0.0,3.0,86,0.00,,,0.00,VWS V14.01,2013-03-15 08:40:00,
2013-03-15 03:44:00,32.9,27.4,30.02,North,360,3.0,6.0,80,0.00,,,0.00,VWS V14.01,2013-03-15 08:44:00,
2013-03-15 03:45:00,33.9,30.2,30.01,NNE,19,1.0,4.0,86,0.00,,,0.00,VWS V14.01,2013-03-15 08:45:00,
2013-03-15 03:49:00,32.8,27.3,30.02,NNE,15,4.0,6.0,80,0.00,,,0.00,VWS V14.01,2013-03-15 08:49:00,
2013-03-15 03:50:00,34.1,30.4,30.01,North,360,2.0,4.0,86,0.00,,,0.00,VWS V14.01,2013-03-15 08:50:00,
2013-03-15 03:54:00,32.8,27.3,30.02,NNW,348,8.0,8.0,80,0.00,,,0.00,VWS V14.01,2013-03-15 08:54:00,
2013-03-15 03:55:00,34.3,30.3,30.01,North,5,0.0,5.0,85,0.00,,,0.00,VWS V14.01,2013-03-15 08:55:00,
2013-03-15 03:59:00,32.6,27.1,30.02,North,5,4.0,8.0,80,0.00,,,0.00,VWS V14.01,2013-03-15 08:59:00,
2013-03-15 04:00:00,34.4,30.4,30.01,North,349,4.0,7.0,85,0.00,,,0.00,VWS V14.01,2013-03-15 09:00:00,
2013-03-15 04:04:00,32.3,26.5,30.02,NNE,13,7.0,12.0,79,0.00,,,0.00,VWS V14.01,2013-03-15 09:04:00,
2013-03-15 04:05:00,34.4,29.8,30.02,NNE,13,5.0,7.0,83,0.00,,,0.00,VWS V14.01,2013-03-15 09:05:00,
2013-03-15 04:09:00,32.1,26.3,30.02,North,9,7.0,10.0,79,0.00,,,0.00,VWS V14.01,2013-03-15 09:09:00,
2013-03-15 04:10:00,34.4,29.8,30.02,North,360,4.0,8.0,83,0.00,,,0.00,VWS V14.01,2013-03-15 09:10:00,
2013-03-15 04:14:00,31.8,26.0,30.03,NNE,16,7.0,9.0,79,0.00,,,0.00,VWS V14.01,2013-03-15 09:14:00,
2013-03-15 04:15:00,34.4,29.5,30.02,NNW,346,6.0,10.0,82,0.00,,,0.00,VWS V14.01,2013-03-15 09:15:00,
2013-03-15 04:19:00,31.6,25.9,30.03,North,355,4.0,8.0,79,0.00,,,0.00,VWS V14.01,2013-03-15 09:19:00,
2013-03-15 04:20:00,34.4,29.2,30.02,North,360,3.0,9.0,81,0.00,,,0.00,VWS V14.01,2013-03-15 09:20:00,
2013-03-15 04:24:00,31.5,25.8,30.03,NNE,17,6.0,10.0,79,0.00,,,0.00,VWS V14.01,2013-03-15 09:24:00,
2013-03-15 04:25:00,34.4,29.2,30.02,North,11,1.0,6.0,81,0.00,,,0.00,VWS V14.01,2013-03-15 09:25:00,
2013-03-15 04:30:00,31.3,25.2,30.03,NNE,15,5.0,10.0,78,0.00,,,0.00,VWS V14.01,2013-03-15 09:30:00,
2013-03-15 04:35:00,31.2,25.1,30.02,NNW,340,6.0,9.0,78,0.00,,,0.00,VWS V14.01,2013-03-15 09:35:00,
2013-03-15 04:40:00,31.1,24.8,30.02,NNW,345,5.0,10.0,77,0.00,,,0.00,VWS V14.01,2013-03-15 09:40:00,
2013-03-15 04:45:00,31.0,24.6,30.02,North,5,5.0,10.0,77,0.00,,,0.00,VWS V14.01,2013-03-15 09:45:00,
2013-03-15 04:50:00,30.9,24.5,30.02,NNW,341,5.0,9.0,77,0.00,,,0.00,VWS V14.01,2013-03-15 09:50:00,
2013-03-15 04:55:00,30.8,24.5,30.02,NW,315,3.0,8.0,77,0.00,,,0.00,VWS V14.01,2013-03-15 09:55:00,
2013-03-15 05:00:00,30.8,24.5,30.02,NW,312,8.0,10.0,77,0.00,,,0.00,VWS V14.01,2013-03-15 10:00:00,
2013-03-15 05:05:00,30.7,24.4,30.02,NNW,334,7.0,11.0,77,0.00,,,0.00,VWS V14.01,2013-03-15 10:05:00,
2013-03-15 05:10:00,30.7,24.7,30.03,NNW,348,5.0,10.0,78,0.00,,,0.00,VWS V14.01,2013-03-15 10:10:00,
2013-03-15 05:15:00,30.6,24.6,30.03,NNW,336,8.0,9.0,78,0.00,,,0.00,VWS V14.01,2013-03-15 10:15:00,
2013-03-15 05:20:00,30.6,24.3,30.03,NNW,331,5.0,12.0,77,0.00,,,0.00,VWS V14.01,2013-03-15 10:20:00,
2013-03-15 05:25:00,30.6,24.6,30.03,NW,323,4.0,9.0,78,0.00,,,0.00,VWS V14.01,2013-03-15 10:25:00,
2013-03-15 05:30:00,30.5,24.5,30.03,North,360,6.0,9.0,78,0.00,,,0.00,VWS V14.01,2013-03-15 10:30:00,
2013-03-15 05:35:00,33.2,28.0,30.02,North,360,2.0,8.0,81,0.00,,,0.00,VWS V14.01,2013-03-15 10:35:00,
2013-03-15 05:36:00,30.5,24.5,30.04,NNE,32,3.0,9.0,78,0.00,,,0.00,VWS V14.01,2013-03-15 10:36:00,
2013-03-15 05:40:00,33.0,27.8,30.02,North,355,0.0,6.0,81,0.00,,,0.00,VWS V14.01,2013-03-15 10:40:00,
2013-03-15 05:42:00,30.3,24.0,30.04,NNW,342,6.0,8.0,77,0.00,,,0.00,VWS V14.01,2013-03-15 10:42:00,
2013-03-15 05:45:00,32.9,27.4,30.02,NNW,335,4.0,7.0,80,0.00,,,0.00,VWS V14.01,2013-03-15 10:45:00,
2013-03-15 05:47:00,30.1,23.5,30.05,North,360,4.0,4.0,76,0.00,,,0.00,VWS V14.01,2013-03-15 10:47:00,
2013-03-15 05:50:00,32.8,27.3,30.02,NNE,15,2.0,6.0,80,0.00,,,0.00,VWS V14.01,2013-03-15 10:50:00,
2013-03-15 05:52:00,30.0,23.4,30.05,North,355,5.0,10.0,76,0.00,,,0.00,VWS V14.01,2013-03-15 10:52:00,
2013-03-15 05:55:00,32.7,27.2,30.02,North,9,5.0,10.0,80,0.00,,,0.00,VWS V14.01,2013-03-15 10:55:00,
2013-03-15 05:57:00,29.7,22.8,30.05,North,360,7.0,7.0,75,0.00,,,0.00,VWS V14.01,2013-03-15 10:57:00,
2013-03-15 06:00:00,32.5,27.0,30.02,North,11,3.0,8.0,80,0.00,,,0.00,VWS V14.01,2013-03-15 11:00:00,
2013-03-15 06:02:00,29.5,22.2,30.06,NNW,336,2.0,6.0,74,0.00,,,0.00,VWS V14.01,2013-03-15 11:02:00,
2013-03-15 06:05:00,32.3,26.5,30.02,NNE,13,4.0,12.0,79,0.00,,,0.00,VWS V14.01,2013-03-15 11:05:00,
2013-03-15 06:07:00,29.3,22.1,30.06,NW,317,6.0,6.0,74,0.00,,,0.00,VWS V14.01,2013-03-15 11:07:00,
2013-03-15 06:10:00,32.0,26.2,30.02,North,355,5.0,10.0,79,0.00,,,0.00,VWS V14.01,2013-03-15 11:10:00,
2013-03-15 06:12:00,29.1,21.9,30.06,North,355,8.0,8.0,74,0.00,,,0.00,VWS V14.01,2013-03-15 11:12:00,
2013-03-15 06:15:00,31.7,25.9,30.03,NNW,345,6.0,9.0,79,0.00,,,0.00,VWS V14.01,2013-03-15 11:15:00,
2013-03-15 06:17:00,28.9,21.7,30.06,North,355,3.0,7.0,74,0.00,,,0.00,VWS V14.01,2013-03-15 11:17:00,
2013-03-15 06:20:00,31.6,25.9,30.03,North,5,6.0,10.0,79,0.00,,,0.00,VWS V14.01,2013-03-15 11:20:00,
2013-03-15 06:22:00,28.8,21.6,30.07,North,355,1.0,6.0,74,0.00,,,0.00,VWS V14.01,2013-03-15 11:22:00,
2013-03-15 06:25:00,31.4,25.6,30.03,North,351,6.0,12.0,79,0.00,,,0.00,VWS V14.01,2013-03-15 11:25:00,
2013-03-15 06:27:00,28.7,21.5,30.07,NNW,348,4.0,5.0,74,0.00,,,0.00,VWS V14.01,2013-03-15 11:27:00,
2013-03-15 06:30:00,31.2,25.1,30.02,NNE,21,5.0,10.0,78,0.00,,,0.00,VWS V14.01,2013-03-15 11:30:00,
2013-03-15 06:32:00,28.5,21.3,30.07,North,10,1.0,1.0,74,0.00,,,0.00,VWS V14.01,2013-03-15 11:32:00,
2013-03-15 06:35:00,31.2,25.1,30.02,NNW,329,6.0,9.0,78,0.00,,,0.00,VWS V14.01,2013-03-15 11:35:00,
2013-03-15 06:37:00,28.4,21.2,30.07,North,5,7.0,9.0,74,0.00,,,0.00,VWS V14.01,2013-03-15 11:37:00,
2013-03-15 06:40:00,31.0,24.6,30.02,NNW,346,6.0,12.0,77,0.00,,,0.00,VWS V14.01,2013-03-15 11:40:00,
2013-03-15 06:42:00,28.3,20.8,30.07,North,360,3.0,5.0,73,0.00,,,0.00,VWS V14.01,2013-03-15 11:42:00,
2013-03-15 06:45:00,30.9,24.5,30.02,NNW,348,5.0,10.0,77,0.00,,,0.00,VWS V14.01,2013-03-15 11:45:00,
2013-03-15 06:47:00,28.1,20.9,30.08,NNE,30,8.0,8.0,74,0.00,,,0.00,VWS V14.01,2013-03-15 11:47:00,
2013-03-15 06:50:00,30.8,24.5,30.02,NNW,337,8.0,9.0,77,0.00,,,0.00,VWS V14.01,2013-03-15 11:50:00,
2013-03-15 06:52:00,28.0,20.8,30.08,NNE,17,2.0,7.0,74,0.00,,,0.00,VWS V14.01,2013-03-15 11:52:00,
2013-03-15 06:55:00,30.8,24.5,30.02,NNW,333,3.0,9.0,77,0.00,,,0.00,VWS V14.01,2013-03-15 11:55:00,
2013-03-15 06:57:00,27.9,21.0,30.08,North,360,3.0,4.0,75,0.00,,,0.00,VWS V14.01,2013-03-15 11:57:00,
2013-03-15 07:00:00,30.8,24.5,30.02,NNW,334,10.0,12.0,77,0.00,,,0.00,VWS V14.01,2013-03-15 12:00:00,
2013-03-15 07:02:00,27.8,20.9,30.08,NNE,21,2.0,5.0,75,0.00,,,0.00,VWS V14.01,2013-03-15 12:02:00,
2013-03-15 07:05:00,30.7,24.4,30.02,NNW,342,4.0,11.0,77,0.00,,,0.00,VWS V14.01,2013-03-15 12:05:00,
2013-03-15 07:08:00,27.6,20.7,30.08,NE,51,4.0,7.0,75,0.00,,,0.00,VWS V14.01,2013-03-15 12:08:00,
2013-03-15 07:10:00,30.7,24.7,30.03,NNW,334,5.0,10.0,78,0.00,,,0.00,VWS V14.01,2013-03-15 12:10:00,
2013-03-15 07:13:00,27.5,20.6,30.08,ENE,59,4.0,6.0,75,0.00,,,0.00,VWS V14.01,2013-03-15 12:13:00,
2013-03-15 07:15:00,30.6,24.6,30.03,NNW,336,9.0,9.0,78,0.00,,,0.00,VWS V14.01,2013-03-15 12:15:00,
2013-03-15 07:18:00,27.4,20.5,30.08,NNE,29,6.0,8.0,75,0.00,,,0.00,VWS V14.01,2013-03-15 12:18:00,
2013-03-15 07:20:00,30.6,24.3,30.03,North,355,5.0,12.0,77,0.00,,,0.00,VWS V14.01,2013-03-15 12:20:00,
2013-03-15 07:23:00,27.2,20.3,30.08,NE,44,5.0,10.0,75,0.00,,,0.00,VWS V14.01,2013-03-15 12:23:00,
2013-03-15 07:25:00,30.5,24.5,30.03,North,5,7.0,9.0,78,0.00,,,0.00,VWS V14.01,2013-03-15 12:25:00,
2013-03-15 07:28:00,27.1,20.2,30.08,NNW,348,0.0,3.0,75,0.00,,,0.00,VWS V14.01,2013-03-15 12:28:00,
2013-03-15 07:30:00,30.5,24.5,30.04,NNE,27,7.0,9.0,78,0.00,,,0.00,VWS V14.01,2013-03-15 12:30:00,
2013-03-15 07:33:00,27.0,20.1,30.08,NNE,17,3.0,4.0,75,0.00,,,0.00,VWS V14.01,2013-03-15 12:33:00,
2013-03-15 07:35:00,30.4,24.1,30.04,North,360,4.0,9.0,77,0.00,,,0.00,VWS V14.01,2013-03-15 12:35:00,
2013-03-15 07:38:00,26.9,20.0,30.08,NNW,336,2.0,6.0,75,0.00,,,0.00,VWS V14.01,2013-03-15 12:38:00,
2013-03-15 07:40:00,30.3,24.0,30.04,NNW,342,6.0,8.0,77,0.00,,,0.00,VWS V14.01,2013-03-15 12:40:00,
2013-03-15 07:43:00,26.9,20.0,30.08,NE,34,5.0,7.0,75,0.00,,,0.00,VWS V14.01,2013-03-15 12:43:00,
2013-03-15 07:45:00,30.1,23.5,30.04,North,360,4.0,9.0,76,0.00,,,0.00,VWS V14.01,2013-03-15 12:45:00,
2013-03-15 07:48:00,26.7,19.9,30.08,North,360,4.0,6.0,75,0.00,,,0.00,VWS V14.01,2013-03-15 12:48:00,
2013-03-15 07:50:00,30.0,23.4,30.05,North,5,4.0,10.0,76,0.00,,,0.00,VWS V14.01,2013-03-15 12:50:00,
2013-03-15 07:53:00,26.6,19.8,30.08,North,5,2.0,7.0,75,0.00,,,0.00,VWS V14.01,2013-03-15 12:53:00,
2013-03-15 07:55:00,29.8,22.9,30.05,North,360,7.0,11.0,75,0.00,,,0.00,VWS V14.01,2013-03-15 12:55:00,
2013-03-15 07:58:00,26.4,19.6,30.08,North,360,4.0,6.0,75,0.00,,,0.00,VWS V14.01,2013-03-15 12:58:00,
2013-03-15 08:00:00,29.5,22.6,30.06,North,349,6.0,9.0,75,0.00,,,0.00,VWS V14.01,2013-03-15 13:00:00,
2013-03-15 08:03:00,26.2,18.7,30.08,North,360,7.0,10.0,73,0.00,,,0.00,VWS V14.01,2013-03-15 13:03:00,
2013-03-15 08:05:00,29.3,22.1,30.06,North,11,6.0,8.0,74,0.00,,,0.00,VWS V14.01,2013-03-15 13:05:00,
2013-03-15 08:08:00,25.8,17.7,30.08,North,360,6.0,11.0,71,0.00,,,0.00,VWS V14.01,2013-03-15 13:08:00,
2013-03-15 08:10:00,29.1,21.9,30.06,North,360,2.0,13.0,74,0.00,,,0.00,VWS V14.01,2013-03-15 13:10:00,
2013-03-15 08:13:00,25.4,17.3,30.08,NNE,33,9.0,11.0,71,0.00,,,0.00,VWS V14.01,2013-03-15 13:13:00,
2013-03-15 08:15:00,28.9,21.7,30.06,NNW,342,3.0,10.0,74,0.00,,,0.00,VWS V14.01,2013-03-15 13:15:00,
2013-03-15 08:19:00,25.1,17.0,30.08,North,355,3.0,11.0,71,0.00,,,0.00,VWS V14.01,2013-03-15 13:19:00,
2013-03-15 08:20:00,28.8,21.6,30.07,NNW,342,4.0,7.0,74,0.00,,,0.00,VWS V14.01,2013-03-15 13:20:00,
2013-03-15 08:24:00,25.0,17.3,30.08,North,350,4.0,8.0,72,0.00,,,0.00,VWS V14.01,2013-03-15 13:24:00,
2013-03-15 08:25:00,28.7,21.5,30.07,North,10,2.0,9.0,74,0.00,,,0.00,VWS V14.01,2013-03-15 13:25:00,
2013-03-15 08:29:00,24.9,17.2,30.09,North,355,8.0,11.0,72,0.00,,,0.00,VWS V14.01,2013-03-15 13:29:00,
2013-03-15 08:30:00,28.5,21.3,30.07,North,10,0.0,6.0,74,0.00,,,0.00,VWS V14.01,2013-03-15 13:30:00,
2013-03-15 08:34:00,24.9,17.5,30.09,NNE,13,6.0,11.0,73,0.00,,,0.00,VWS V14.01,2013-03-15 13:34:00,
2013-03-15 08:35:00,28.4,21.2,30.07,NE,43,9.0,10.0,74,0.00,,,0.00,VWS V14.01,2013-03-15 13:35:00,
2013-03-15 08:39:00,24.9,17.5,30.09,North,360,4.0,9.0,73,0.00,,,0.00,VWS V14.01,2013-03-15 13:39:00,
2013-03-15 08:40:00,28.3,21.1,30.07,North,360,3.0,10.0,74,0.00,,,0.00,VWS V14.01,2013-03-15 13:40:00,
2013-03-15 08:44:00,24.9,17.5,30.09,NNW,344,4.0,11.0,73,0.00,,,0.00,VWS V14.01,2013-03-15 13:44:00,
2013-03-15 08:45:00,28.1,20.9,30.08,NE,42,6.0,9.0,74,0.00,,,0.00,VWS V14.01,2013-03-15 13:45:00,
2013-03-15 08:49:00,24.9,17.8,30.09,North,5,5.0,8.0,74,0.00,,,0.00,VWS V14.01,2013-03-15 13:49:00,
2013-03-15 08:50:00,28.0,20.8,30.08,NNE,33,7.0,8.0,74,0.00,,,0.00,VWS V14.01,2013-03-15 13:50:00,
2013-03-15 08:54:00,24.9,17.8,30.10,NNE,17,5.0,10.0,74,0.00,,,0.00,VWS V14.01,2013-03-15 13:54:00,
2013-03-15 08:55:00,27.9,20.7,30.08,NNE,16,3.0,7.0,74,0.00,,,0.00,VWS V14.01,2013-03-15 13:55:00,
2013-03-15 08:59:00,24.9,17.8,30.10,North,350,3.0,9.0,74,0.00,,,0.00,VWS V14.01,2013-03-15 13:59:00,
2013-03-15 09:00:00,27.8,20.9,30.08,North,351,3.0,7.0,75,0.00,,,0.00,VWS V14.01,2013-03-15 14:00:00,
2013-03-15 09:04:00,25.0,17.9,30.10,North,9,6.0,8.0,74,0.00,,,0.00,VWS V14.01,2013-03-15 14:04:00,
2013-03-15 09:05:00,27.6,20.7,30.08,NNE,29,2.0,8.0,75,0.00,,,0.00,VWS V14.01,2013-03-15 14:05:00,
2013-03-15 09:09:00,25.0,17.6,30.09,North,355,7.0,10.0,73,0.00,,,0.00,VWS V14.01,2013-03-15 14:09:00,
2013-03-15 09:10:00,27.5,20.6,30.08,NE,55,5.0,12.0,75,0.00,,,0.00,VWS V14.01,2013-03-15 14:10:00,
2013-03-15 09:14:00,24.9,17.5,30.09,North,5,3.0,8.0,73,0.00,,,0.00,VWS V14.01,2013-03-15 14:14:00,
2013-03-15 09:15:00,27.4,20.5,30.08,North,11,4.0,10.0,75,0.00,,,0.00,VWS V14.01,2013-03-15 14:15:00,
2013-03-15 09:19:00,25.0,17.3,30.09,NNW,348,4.0,9.0,72,0.00,,,0.00,VWS V14.01,2013-03-15 14:19:00,
2013-03-15 09:20:00,27.2,20.3,30.08,ENE,62,9.0,9.0,75,0.00,,,0.00,VWS V14.01,2013-03-15 14:20:00,
2013-03-15 09:24:00,24.8,16.1,30.09,North,360,9.0,10.0,69,0.00,,,0.00,VWS V14.01,2013-03-15 14:24:00,
2013-03-15 09:25:00,27.1,20.2,30.08,NNW,348,3.0,10.0,75,0.00,,,0.00,VWS V14.01,2013-03-15 14:25:00,
2013-03-15 09:29:00,24.9,16.5,30.09,NNE,30,7.0,11.0,70,0.00,,,0.00,VWS V14.01,2013-03-15 14:29:00,
2013-03-15 09:30:00,27.0,20.1,30.08,NNE,17,0.0,5.0,75,0.00,,,0.00,VWS V14.01,2013-03-15 14:30:00,
2013-03-15 09:34:00,25.0,16.3,30.10,NNE,14,7.0,11.0,69,0.00,,,0.00,VWS V14.01,2013-03-15 14:34:00,
2013-03-15 09:35:00,27.0,20.1,30.08,North,5,0.0,7.0,75,0.00,,,0.00,VWS V14.01,2013-03-15 14:35:00,
2013-03-15 09:39:00,24.9,16.2,30.10,NNW,344,3.0,9.0,69,0.00,,,0.00,VWS V14.01,2013-03-15 14:39:00,
2013-03-15 09:40:00,26.9,20.0,30.08,NNE,22,3.0,7.0,75,0.00,,,0.00,VWS V14.01,2013-03-15 14:40:00,
2013-03-15 09:44:00,25.1,16.0,30.10,NNE,13,4.0,9.0,68,0.00,,,0.00,VWS V14.01,2013-03-15 14:44:00,
2013-03-15 09:45:00,26.8,20.0,30.08,NNE,26,3.0,7.0,75,0.00,,,0.00,VWS V14.01,2013-03-15 14:45:00,
2013-03-15 09:50:00,25.6,16.9,30.10,NE,45,3.0,8.0,69,0.00,,,0.00,VWS V14.01,2013-03-15 14:50:00,
2013-03-15 09:55:00,26.2,17.4,30.10,NE,47,3.0,8.0,69,0.00,,,0.00,VWS V14.01,2013-03-15 14:55:00,
2013-03-15 10:00:00,26.5,17.0,30.10,NNE,15,6.0,11.0,67,0.00,,,0.00,VWS V14.01,2013-03-15 15:00:00,
2013-03-15 10:05:00,26.7,16.5,30.10,ENE,57,8.0,11.0,65,0.00,,,0.00,VWS V14.01,2013-03-15 15:05:00,
2013-03-15 10:10:00,27.5,18.0,30.10,NNE,25,4.0,7.0,67,0.00,,,0.00,VWS V14.01,2013-03-15 15:10:00,
2013-03-15 10:15:00,27.9,17.3,30.10,NE,52,4.0,8.0,64,0.00,,,0.00,VWS V14.01,2013-03-15 15:15:00,
2013-03-15 10:20:00,27.8,16.5,30.10,NNE,28,6.0,8.0,62,0.00,,,0.00,VWS V14.01,2013-03-15 15:20:00,
2013-03-15 10:25:00,28.0,17.0,30.10,NE,38,6.0,8.0,63,0.00,,,0.00,VWS V14.01,2013-03-15 15:25:00,
2013-03-15 10:30:00,28.8,18.5,30.10,ENE,67,4.0,4.0,65,0.00,,,0.00,VWS V14.01,2013-03-15 15:30:00,
2013-03-15 10:35:00,29.8,18.8,30.10,ENE,71,4.0,10.0,63,0.00,,,0.00,VWS V14.01,2013-03-15 15:35:00,
2013-03-15 10:40:00,30.2,19.1,30.10,East,80,6.0,7.0,63,0.00,,,0.00,VWS V14.01,2013-03-15 15:40:00,
2013-03-15 10:45:00,30.2,18.4,30.10,ENE,74,5.0,11.0,61,0.00,,,0.00,VWS V14.01,2013-03-15 15:45:00,
2013-03-15 10:50:00,30.0,17.8,30.10,ENE,76,4.0,11.0,60,0.00,,,0.00,VWS V14.01,2013-03-15 15:50:00,
2013-03-15 10:55:00,30.1,17.9,30.10,East,79,7.0,11.0,60,0.00,,,0.00,VWS V14.01,2013-03-15 15:55:00,
2013-03-15 11:00:00,30.3,18.1,30.10,ENE,65,7.0,14.0,60,0.00,,,0.00,VWS V14.01,2013-03-15 16:00:00,
2013-03-15 11:05:00,30.6,18.8,30.10,ENE,67,5.0,9.0,61,0.00,,,0.00,VWS V14.01,2013-03-15 16:05:00,
2013-03-15 11:10:00,30.8,18.6,30.09,East,92,6.0,11.0,60,0.00,,,0.00,VWS V14.01,2013-03-15 16:10:00,
2013-03-15 11:15:00,30.5,18.7,30.09,SE,129,5.0,10.0,61,0.00,,,0.00,VWS V14.01,2013-03-15 16:15:00,
2013-03-15 11:20:00,31.4,20.6,30.09,ENE,76,9.0,10.0,64,0.00,,,0.00,VWS V14.01,2013-03-15 16:20:00,
2013-03-15 11:25:00,31.3,19.0,30.09,East,90,9.0,13.0,60,0.00,,,0.00,VWS V14.01,2013-03-15 16:25:00,
2013-03-15 11:30:00,30.8,19.0,30.09,East,97,8.0,11.0,61,0.00,,,0.00,VWS V14.01,2013-03-15 16:30:00,
2013-03-15 11:35:00,30.9,19.8,30.10,SE,141,9.0,11.0,63,0.00,,,0.00,VWS V14.01,2013-03-15 16:35:00,
2013-03-15 11:40:00,25.0,16.3,30.10,North,355,2.0,9.0,69,0.00,,,0.00,VWS V14.01,2013-03-15 16:40:00,
2013-03-15 11:41:00,31.0,20.3,30.09,East,95,8.0,13.0,64,0.00,,,0.00,VWS V14.01,2013-03-15 16:41:00,
2013-03-15 11:45:00,25.2,16.5,30.10,NE,40,3.0,9.0,69,0.00,,,0.00,VWS V14.01,2013-03-15 16:45:00,
2013-03-15 11:46:00,31.1,19.6,30.09,East,93,9.0,11.0,62,0.00,,,0.00,VWS V14.01,2013-03-15 16:46:00,
2013-03-15 11:50:00,25.9,17.1,30.10,NE,51,0.0,8.0,69,0.00,,,0.00,VWS V14.01,2013-03-15 16:50:00,
2013-03-15 11:51:00,31.9,20.8,30.09,ENE,61,5.0,10.0,63,0.00,,,0.00,VWS V14.01,2013-03-15 16:51:00,
2013-03-15 11:55:00,26.3,16.9,30.10,NNE,18,8.0,11.0,67,0.00,,,0.00,VWS V14.01,2013-03-15 16:55:00,
2013-03-15 11:56:00,31.5,20.0,30.09,East,88,10.0,12.0,62,0.00,,,0.00,VWS V14.01,2013-03-15 16:56:00,
2013-03-15 12:00:00,26.6,17.1,30.10,NE,46,5.0,11.0,67,0.00,,,0.00,VWS V14.01,2013-03-15 17:00:00,
2013-03-15 12:01:00,31.2,19.7,30.10,ENE,76,9.0,13.0,62,0.00,,,0.00,VWS V14.01,2013-03-15 17:01:00,
2013-03-15 12:05:00,26.8,17.0,30.10,NE,37,2.0,11.0,66,0.00,,,0.00,VWS V14.01,2013-03-15 17:05:00,
2013-03-15 12:06:00,30.5,19.0,30.10,East,84,7.0,13.0,62,0.00,,,0.00,VWS V14.01,2013-03-15 17:06:00,
2013-03-15 12:10:00,27.8,17.6,30.10,NE,42,6.0,8.0,65,0.00,,,0.00,VWS V14.01,2013-03-15 17:10:00,
2013-03-15 12:12:00,30.2,19.5,30.10,East,101,8.0,11.0,64,0.00,,,0.00,VWS V14.01,2013-03-15 17:12:00,
2013-03-15 12:15:00,27.9,17.7,30.10,NE,36,4.0,8.0,65,0.00,,,0.00,VWS V14.01,2013-03-15 17:15:00,
2013-03-15 12:17:00,29.9,19.2,30.10,East,86,7.0,15.0,64,0.00,,,0.00,VWS V14.01,2013-03-15 17:17:00,
2013-03-15 12:20:00,27.6,17.0,30.10,NE,49,1.0,8.0,64,0.00,,,0.00,VWS V14.01,2013-03-15 17:20:00,
2013-03-15 12:22:00,29.9,18.5,30.10,ESE,109,7.0,10.0,62,0.00,,,0.00,VWS V14.01,2013-03-15 17:22:00,
2013-03-15 12:25:00,28.1,17.9,30.10,NNE,24,2.0,8.0,65,0.00,,,0.00,VWS V14.01,2013-03-15 17:25:00,
2013-03-15 12:27:00,30.2,18.4,30.10,East,87,8.0,10.0,61,0.00,,,0.00,VWS V14.01,2013-03-15 17:27:00,
2013-03-15 12:30:00,29.2,18.5,30.10,ENE,76,10.0,10.0,64,0.00,,,0.00,VWS V14.01,2013-03-15 17:30:00,
2013-03-15 12:32:00,30.7,19.2,30.09,NE,49,3.0,6.0,62,0.00,,,0.00,VWS V14.01,2013-03-15 17:32:00,
2013-03-15 12:35:00,30.1,18.7,30.10,ENE,68,5.0,10.0,62,0.00,,,0.00,VWS V14.01,2013-03-15 17:35:00,
2013-03-15 12:37:00,31.1,18.9,30.09,East,101,8.0,13.0,60,0.00,,,0.00,VWS V14.01,2013-03-15 17:37:00,
2013-03-15 12:40:00,30.2,18.8,30.10,ENE,78,3.0,7.0,62,0.00,,,0.00,VWS V14.01,2013-03-15 17:40:00,
2013-03-15 12:42:00,30.7,17.7,30.09,ENE,74,9.0,15.0,58,0.00,,,0.00,VWS V14.01,2013-03-15 17:42:00,
2013-03-15 12:45:00,30.1,17.9,30.10,ENE,70,9.0,13.0,60,0.00,,,0.00,VWS V14.01,2013-03-15 17:45:00,
2013-03-15 12:47:00,30.9,19.0,30.09,East,83,9.0,9.0,61,0.00,,,0.00,VWS V14.01,2013-03-15 17:47:00,
2013-03-15 12:50:00,29.9,17.3,30.10,ENE,74,5.0,11.0,59,0.00,,,0.00,VWS V14.01,2013-03-15 17:50:00,
2013-03-15 12:52:00,32.2,20.7,30.09,ENE,74,8.0,9.0,62,0.00,,,0.00,VWS V14.01,2013-03-15 17:52:00,
2013-03-15 12:55:00,30.1,17.9,30.10,East,82,7.0,11.0,60,0.00,,,0.00,VWS V14.01,2013-03-15 17:55:00,
2013-03-15 12:57:00,33.0,20.2,30.09,East,87,10.0,10.0,59,0.00,,,0.00,VWS V14.01,2013-03-15 17:57:00,
2013-03-15 13:00:00,30.2,18.4,30.10,ENE,78,8.0,14.0,61,0.00,,,0.00,VWS V14.01,2013-03-15 18:00:00,
2013-03-15 13:03:00,31.9,19.2,30.09,ENE,74,9.0,11.0,59,0.00,,,0.00,VWS V14.01,2013-03-15 18:03:00,
2013-03-15 13:05:00,30.6,18.8,30.09,East,90,7.0,9.0,61,0.00,,,0.00,VWS V14.01,2013-03-15 18:05:00,
2013-03-15 13:08:00,30.6,18.0,30.09,East,81,14.0,14.0,59,0.00,,,0.00,VWS V14.01,2013-03-15 18:08:00,
2013-03-15 13:10:00,30.6,18.0,30.09,East,91,8.0,12.0,59,0.00,,,0.00,VWS V14.01,2013-03-15 18:10:00,
2013-03-15 13:13:00,29.7,17.9,30.09,East,91,7.0,15.0,61,0.00,,,0.00,VWS V14.01,2013-03-15 18:13:00,
2013-03-15 13:15:00,30.6,19.5,30.09,East,84,3.0,10.0,63,0.00,,,0.00,VWS V14.01,2013-03-15 18:15:00,
2013-03-15 13:18:00,29.2,18.2,30.09,ENE,78,11.0,14.0,63,0.00,,,0.00,VWS V14.01,2013-03-15 18:18:00,
2013-03-15 13:20:00,31.6,19.3,30.09,ENE,74,9.0,12.0,60,0.00,,,0.00,VWS V14.01,2013-03-15 18:20:00,
2013-03-15 13:23:00,28.8,17.8,30.09,East,94,6.0,13.0,63,0.00,,,0.00,VWS V14.01,2013-03-15 18:23:00,
2013-03-15 13:25:00,31.1,18.9,30.09,East,101,9.0,13.0,60,0.00,,,0.00,VWS V14.01,2013-03-15 18:25:00,
2013-03-15 13:28:00,28.5,18.2,30.09,East,84,7.0,17.0,65,0.00,,,0.00,VWS V14.01,2013-03-15 18:28:00,
2013-03-15 13:30:00,30.6,19.1,30.09,ENE,75,11.0,11.0,62,0.00,,,0.00,VWS V14.01,2013-03-15 18:30:00,
2013-03-15 13:33:00,28.2,17.2,30.08,East,97,11.0,14.0,63,0.00,,,0.00,VWS V14.01,2013-03-15 18:33:00,
2013-03-15 13:35:00,31.0,19.9,30.10,East,92,6.0,11.0,63,0.00,,,0.00,VWS V14.01,2013-03-15 18:35:00,
2013-03-15 13:38:00,28.0,18.1,30.08,ESE,102,11.0,11.0,66,0.00,,,0.00,VWS V14.01,2013-03-15 18:38:00,
2013-03-15 13:40:00,30.8,19.0,30.09,East,86,6.0,13.0,61,0.00,,,0.00,VWS V14.01,2013-03-15 18:40:00,
2013-03-15 13:43:00,27.9,17.3,30.08,East,93,9.0,16.0,64,0.00,,,0.00,VWS V14.01,2013-03-15 18:43:00,
2013-03-15 13:45:00,31.2,20.1,30.09,East,80,6.0,11.0,63,0.00,,,0.00,VWS V14.01,2013-03-15 18:45:00,
2013-03-15 13:48:00,28.1,20.2,30.08,ENE,60,4.0,12.0,72,0.00,,,0.00,VWS V14.01,2013-03-15 18:48:00,
2013-03-15 13:50:00,31.9,20.8,30.09,East,96,9.0,10.0,63,0.00,,,0.00,VWS V14.01,2013-03-15 18:50:00,
2013-03-15 13:53:00,27.9,17.3,30.08,East,94,8.0,13.0,64,0.00,,,0.00,VWS V14.01,2013-03-15 18:53:00,
2013-03-15 13:55:00,31.5,20.0,30.09,East,87,8.0,12.0,62,0.00,,,0.00,VWS V14.01,2013-03-15 18:55:00,
2013-03-15 13:58:00,27.9,18.0,30.08,ENE,70,4.0,13.0,66,0.00,,,0.00,VWS V14.01,2013-03-15 18:58:00,
2013-03-15 14:00:00,31.1,19.2,30.10,East,98,8.0,13.0,61,0.00,,,0.00,VWS V14.01,2013-03-15 19:00:00,
2013-03-15 14:03:00,28.0,17.0,30.08,East,84,15.0,17.0,63,0.00,,,0.00,VWS V14.01,2013-03-15 19:03:00,
2013-03-15 14:05:00,30.5,19.0,30.10,East,80,7.0,13.0,62,0.00,,,0.00,VWS V14.01,2013-03-15 19:05:00,
2013-03-15 14:09:00,27.9,17.0,30.09,East,83,5.0,15.0,63,0.00,,,0.00,VWS V14.01,2013-03-15 19:09:00,
2013-03-15 14:10:00,30.2,19.5,30.10,East,101,8.0,11.0,64,0.00,,,0.00,VWS V14.01,2013-03-15 19:10:00,
2013-03-15 14:14:00,28.1,16.8,30.08,East,99,11.0,16.0,62,0.00,,,0.00,VWS V14.01,2013-03-15 19:14:00,
2013-03-15 14:15:00,29.9,19.2,30.10,East,86,7.0,15.0,64,0.00,,,0.00,VWS V14.01,2013-03-15 19:15:00,
2013-03-15 14:19:00,28.4,18.1,30.08,ENE,76,8.0,14.0,65,0.00,,,0.00,VWS V14.01,2013-03-15 19:19:00,
2013-03-15 14:20:00,29.9,19.2,30.10,East,88,10.0,14.0,64,0.00,,,0.00,VWS V14.01,2013-03-15 19:20:00,
2013-03-15 14:24:00,28.8,17.8,30.08,ENE,73,15.0,15.0,63,0.00,,,0.00,VWS V14.01,2013-03-15 19:24:00,
2013-03-15 14:25:00,30.2,18.4,30.10,East,94,10.0,11.0,61,0.00,,,0.00,VWS V14.01,2013-03-15 19:25:00,
2013-03-15 14:29:00,29.3,18.6,30.07,East,82,11.0,15.0,64,0.00,,,0.00,VWS V14.01,2013-03-15 19:29:00,
2013-03-15 14:30:00,30.6,19.1,30.09,East,79,6.0,10.0,62,0.00,,,0.00,VWS V14.01,2013-03-15 19:30:00,
2013-03-15 14:34:00,29.3,18.3,30.07,ENE,63,4.0,14.0,63,0.00,,,0.00,VWS V14.01,2013-03-15 19:34:00,
2013-03-15 14:35:00,31.1,18.9,30.09,ENE,73,7.0,10.0,60,0.00,,,0.00,VWS V14.01,2013-03-15 19:35:00,
2013-03-15 14:39:00,29.4,18.4,30.07,East,98,8.0,14.0,63,0.00,,,0.00,VWS V14.01,2013-03-15 19:39:00,
2013-03-15 14:40:00,30.8,17.8,30.09,East,88,14.0,17.0,58,0.00,,,0.00,VWS V14.01,2013-03-15 19:40:00,
2013-03-15 14:44:00,29.2,17.1,30.06,ENE,65,8.0,14.0,60,0.00,,,0.00,VWS V14.01,2013-03-15 19:44:00,
2013-03-15 14:45:00,30.8,19.0,30.09,East,87,7.0,15.0,61,0.00,,,0.00,VWS V14.01,2013-03-15 19:45:00,
2013-03-15 14:49:00,29.7,18.7,30.06,ENE,69,4.0,10.0,63,0.00,,,0.00,VWS V14.01,2013-03-15 19:49:00,
2013-03-15 14:50:00,31.9,19.6,30.09,East,79,9.0,13.0,60,0.00,,,0.00,VWS V14.01,2013-03-15 19:50:00,
2013-03-15 14:54:00,30.0,18.2,30.06,East,82,8.0,9.0,61,0.00,,,0.00,VWS V14.01,2013-03-15 19:54:00,
2013-03-15 14:55:00,33.0,20.2,30.09,NE,50,6.0,10.0,59,0.00,,,0.00,VWS V14.01,2013-03-15 19:55:00,
2013-03-15 14:59:00,29.1,15.8,30.06,ENE,67,7.0,14.0,57,0.00,,,0.00,VWS V14.01,2013-03-15 19:59:00,
2013-03-15 15:00:00,32.0,18.9,30.09,ENE,63,8.0,16.0,58,0.00,,,0.00,VWS V14.01,2013-03-15 20:00:00,
2013-03-15 15:04:00,28.5,16.8,30.06,East,80,13.0,15.0,61,0.00,,,0.00,VWS V14.01,2013-03-15 20:04:00,
2013-03-15 15:05:00,30.8,17.8,30.09,East,87,8.0,15.0,58,0.00,,,0.00,VWS V14.01,2013-03-15 20:05:00,
2013-03-15 15:09:00,28.8,16.3,30.05,East,92,10.0,15.0,59,0.00,,,0.00,VWS V14.01,2013-03-15 20:09:00,
2013-03-15 15:10:00,29.8,18.0,30.09,East,97,15.0,15.0,61,0.00,,,0.00,VWS V14.01,2013-03-15 20:10:00,
2013-03-15 15:14:00,28.1,16.4,30.06,East,85,10.0,13.0,61,0.00,,,0.00,VWS V14.01,2013-03-15 20:14:00,
2013-03-15 15:15:00,29.3,18.3,30.09,ENE,59,4.0,16.0,63,0.00,,,0.00,VWS V14.01,2013-03-15 20:15:00,
2013-03-15 15:19:00,27.2,16.3,30.06,East,87,9.0,16.0,63,0.00,,,0.00,VWS V14.01,2013-03-15 20:19:00,
2013-03-15 15:20:00,29.0,18.0,30.09,ESE,103,12.0,14.0,63,0.00,,,0.00,VWS V14.01,2013-03-15 20:20:00,
2013-03-15 15:24:00,26.8,16.3,30.06,ENE,78,8.0,13.0,64,0.00,,,0.00,VWS V14.01,2013-03-15 20:24:00,
2013-03-15 15:25:00,28.7,18.4,30.09,East,88,8.0,15.0,65,0.00,,,0.00,VWS V14.01,2013-03-15 20:25:00,
2013-03-15 15:29:00,26.6,16.1,30.06,East,82,10.0,11.0,64,0.00,,,0.00,VWS V14.01,2013-03-15 20:29:00,
2013-03-15 15:30:00,28.4,18.1,30.09,East,79,14.0,18.0,65,0.00,,,0.00,VWS V14.01,2013-03-15 20:30:00,
2013-03-15 15:34:00,26.0,15.1,30.06,East,99,8.0,16.0,63,0.00,,,0.00,VWS V14.01,2013-03-15 20:34:00,
2013-03-15 15:35:00,27.8,16.9,30.09,ENE,72,4.0,16.0,63,0.00,,,0.00,VWS V14.01,2013-03-15 20:35:00,
2013-03-15 15:39:00,25.6,15.8,30.06,East,90,10.0,13.0,66,0.00,,,0.00,VWS V14.01,2013-03-15 20:39:00,
2013-03-15 15:40:00,28.0,17.8,30.08,ENE,77,15.0,15.0,65,0.00,,,0.00,VWS V14.01,2013-03-15 20:40:00,
2013-03-15 15:44:00,25.3,15.9,30.05,East,80,14.0,14.0,67,0.00,,,0.00,VWS V14.01,2013-03-15 20:44:00,
2013-03-15 15:45:00,28.0,18.5,30.08,East,90,6.0,16.0,67,0.00,,,0.00,VWS V14.01,2013-03-15 20:45:00,
2013-03-15 15:49:00,25.0,15.3,30.05,East,80,7.0,13.0,66,0.00,,,0.00,VWS V14.01,2013-03-15 20:49:00,
2013-03-15 15:50:00,28.0,17.4,30.08,East,88,5.0,16.0,64,0.00,,,0.00,VWS V14.01,2013-03-15 20:50:00,
2013-03-15 15:54:00,24.8,15.1,30.05,East,90,11.0,14.0,66,0.00,,,0.00,VWS V14.01,2013-03-15 20:54:00,
2013-03-15 15:55:00,27.9,17.7,30.08,East,84,10.0,15.0,65,0.00,,,0.00,VWS V14.01,2013-03-15 20:55:00,
2013-03-15 16:00:00,24.6,14.9,30.05,East,96,6.0,12.0,66,0.00,,,0.00,VWS V14.01,2013-03-15 21:00:00,
2013-03-15 16:05:00,24.6,14.5,30.05,East,87,7.0,14.0,65,0.00,,,0.00,VWS V14.01,2013-03-15 21:05:00,
2013-03-15 16:10:00,24.5,14.4,30.05,East,83,6.0,10.0,65,0.00,,,0.00,VWS V14.01,2013-03-15 21:10:00,
2013-03-15 16:15:00,24.7,14.6,30.05,ENE,75,10.0,13.0,65,0.00,,,0.00,VWS V14.01,2013-03-15 21:15:00,
2013-03-15 16:20:00,24.6,14.2,30.05,East,79,14.0,14.0,64,0.00,,,0.00,VWS V14.01,2013-03-15 21:20:00,
2013-03-15 16:25:00,24.6,14.2,30.06,ENE,76,9.0,10.0,64,0.00,,,0.00,VWS V14.01,2013-03-15 21:25:00,
2013-03-15 16:30:00,24.6,13.8,30.06,East,99,13.0,15.0,63,0.00,,,0.00,VWS V14.01,2013-03-15 21:30:00,
2013-03-15 16:35:00,24.5,13.4,30.06,East,82,8.0,15.0,62,0.00,,,0.00,VWS V14.01,2013-03-15 21:35:00,
2013-03-15 16:40:00,24.5,14.4,30.05,ENE,77,10.0,11.0,65,0.00,,,0.00,VWS V14.01,2013-03-15 21:40:00,
2013-03-15 16:45:00,24.5,14.1,30.05,East,101,9.0,15.0,64,0.00,,,0.00,VWS V14.01,2013-03-15 21:45:00,
2013-03-15 16:50:00,24.4,14.0,30.06,ENE,69,10.0,13.0,64,0.00,,,0.00,VWS V14.01,2013-03-15 21:50:00,
2013-03-15 16:55:00,24.3,13.9,30.06,NE,45,3.0,9.0,64,0.00,,,0.00,VWS V14.01,2013-03-15 21:55:00,
2013-03-15 17:00:00,24.5,14.4,30.06,ENE,65,4.0,13.0,65,0.00,,,0.00,VWS V14.01,2013-03-15 22:00:00,
2013-03-15 17:05:00,24.5,14.4,30.06,ESE,106,7.0,11.0,65,0.00,,,0.00,VWS V14.01,2013-03-15 22:05:00,
2013-03-15 17:10:00,24.5,14.8,30.05,ENE,72,5.0,13.0,66,0.00,,,0.00,VWS V14.01,2013-03-15 22:10:00,
2013-03-15 17:15:00,24.3,14.9,30.05,ENE,67,9.0,15.0,67,0.00,,,0.00,VWS V14.01,2013-03-15 22:15:00,
2013-03-15 17:20:00,24.2,15.2,30.06,NE,52,11.0,11.0,68,0.00,,,0.00,VWS V14.01,2013-03-15 22:20:00,
2013-03-15 17:25:00,26.7,16.5,30.06,East,94,7.0,13.0,65,0.00,,,0.00,VWS V14.01,2013-03-15 22:25:00,
2013-03-15 17:26:00,24.0,15.0,30.05,East,97,10.0,12.0,68,0.00,,,0.00,VWS V14.01,2013-03-15 22:26:00,
2013-03-15 17:30:00,26.3,15.8,30.06,ESE,105,13.0,14.0,64,0.00,,,0.00,VWS V14.01,2013-03-15 22:30:00,
2013-03-15 17:31:00,23.9,14.9,30.05,ENE,78,8.0,13.0,68,0.00,,,0.00,VWS V14.01,2013-03-15 22:31:00,
2013-03-15 17:35:00,25.8,15.7,30.06,ESE,102,8.0,16.0,65,0.00,,,0.00,VWS V14.01,2013-03-15 22:35:00,
2013-03-15 17:36:00,23.9,15.2,30.05,ENE,69,4.0,11.0,69,0.00,,,0.00,VWS V14.01,2013-03-15 22:36:00,
2013-03-15 17:40:00,25.4,15.6,30.05,ENE,76,7.0,13.0,66,0.00,,,0.00,VWS V14.01,2013-03-15 22:40:00,
2013-03-15 17:41:00,23.9,15.6,30.04,East,87,11.0,11.0,70,0.00,,,0.00,VWS V14.01,2013-03-15 22:41:00,
2013-03-15 17:45:00,25.1,15.4,30.05,East,84,10.0,14.0,66,0.00,,,0.00,VWS V14.01,2013-03-15 22:45:00,
2013-03-15 17:46:00,23.7,15.0,30.04,ENE,76,10.0,18.0,69,0.00,,,0.00,VWS V14.01,2013-03-15 22:46:00,
2013-03-15 17:50:00,24.9,15.2,30.05,East,98,9.0,13.0,66,0.00,,,0.00,VWS V14.01,2013-03-15 22:50:00,
2013-03-15 17:51:00,23.5,15.2,30.04,East,92,9.0,11.0,70,0.00,,,0.00,VWS V14.01,2013-03-15 22:51:00,
2013-03-15 17:55:00,24.7,14.6,30.05,ESE,106,10.0,14.0,65,0.00,,,0.00,VWS V14.01,2013-03-15 22:55:00,
2013-03-15 17:56:00,23.3,15.3,30.05,East,80,7.0,11.0,71,0.00,,,0.00,VWS V14.01,2013-03-15 22:56:00,
2013-03-15 18:00:00,24.6,14.9,30.05,East,85,7.0,12.0,66,0.00,,,0.00,VWS V14.01,2013-03-15 23:00:00,
2013-03-15 18:02:00,23.2,15.5,30.05,ENE,76,7.0,13.0,72,0.00,,,0.00,VWS V14.01,2013-03-15 23:02:00,
2013-03-15 18:05:00,24.5,14.4,30.05,ENE,78,7.0,14.0,65,0.00,,,0.00,VWS V14.01,2013-03-15 23:05:00,
2013-03-15 18:07:00,23.1,15.1,30.04,East,82,9.0,9.0,71,0.00,,,0.00,VWS V14.01,2013-03-15 23:07:00,
2013-03-15 18:10:00,24.6,14.9,30.05,ENE,72,7.0,11.0,66,0.00,,,0.00,VWS V14.01,2013-03-15 23:10:00,
2013-03-15 18:12:00,23.0,15.6,30.05,East,82,6.0,6.0,73,0.00,,,0.00,VWS V14.01,2013-03-15 23:12:00,
2013-03-15 18:15:00,24.6,14.2,30.05,East,84,11.0,14.0,64,0.00,,,0.00,VWS V14.01,2013-03-15 23:15:00,
2013-03-15 18:17:00,22.9,15.9,30.05,ENE,65,8.0,9.0,74,0.00,,,0.00,VWS V14.01,2013-03-15 23:17:00,
2013-03-15 18:20:00,24.6,13.8,30.05,ENE,75,7.0,15.0,63,0.00,,,0.00,VWS V14.01,2013-03-15 23:20:00,
2013-03-15 18:22:00,22.8,15.8,30.05,East,80,7.0,7.0,74,0.00,,,0.00,VWS V14.01,2013-03-15 23:22:00,
2013-03-15 18:25:00,24.6,13.8,30.06,East,85,6.0,13.0,63,0.00,,,0.00,VWS V14.01,2013-03-15 23:25:00,
2013-03-15 18:27:00,22.7,15.7,30.06,East,93,7.0,7.0,74,0.00,,,0.00,VWS V14.01,2013-03-15 23:27:00,
2013-03-15 18:30:00,24.6,13.4,30.05,ENE,63,10.0,15.0,62,0.00,,,0.00,VWS V14.01,2013-03-15 23:30:00,
2013-03-15 18:32:00,22.6,15.6,30.06,East,85,7.0,8.0,74,0.00,,,0.00,VWS V14.01,2013-03-15 23:32:00,
2013-03-15 18:35:00,24.5,13.7,30.05,ENE,74,8.0,15.0,63,0.00,,,0.00,VWS V14.01,2013-03-15 23:35:00,
2013-03-15 18:37:00,22.5,15.5,30.06,East,82,10.0,10.0,74,0.00,,,0.00,VWS V14.01,2013-03-15 23:37:00,
2013-03-15 18:40:00,24.5,14.1,30.05,East,82,9.0,13.0,64,0.00,,,0.00,VWS V14.01,2013-03-15 23:40:00,
2013-03-15 18:43:00,22.4,15.7,30.06,ENE,78,7.0,7.0,75,0.00,,,0.00,VWS V14.01,2013-03-15 23:43:00,
2013-03-15 18:45:00,24.5,14.1,30.05,ENE,78,7.0,15.0,64,0.00,,,0.00,VWS V14.01,2013-03-15 23:45:00,
2013-03-15 18:48:00,22.2,15.8,30.07,ENE,65,4.0,7.0,76,0.00,,,0.00,VWS V14.01,2013-03-15 23:48:00,
2013-03-15 18:50:00,24.4,14.0,30.06,NE,55,4.0,13.0,64,0.00,,,0.00,VWS V14.01,2013-03-15 23:50:00,
2013-03-15 18:53:00,22.0,16.2,30.07,East,80,10.0,10.0,78,0.00,,,0.00,VWS V14.01,2013-03-15 23:53:00,
2013-03-15 18:55:00,24.4,14.0,30.06,ENE,74,5.0,9.0,64,0.00,,,0.00,VWS V14.01,2013-03-15 23:55:00,
2013-03-15 18:58:00,21.8,16.3,30.07,NE,46,2.0,7.0,79,0.00,,,0.00,VWS V14.01,2013-03-15 23:58:00,
2013-03-15 19:00:00,24.5,14.4,30.06,ENE,63,5.0,13.0,65,0.00,,,0.00,VWS V14.01,2013-03-16 00:00:00,
2013-03-15 19:03:00,21.7,16.5,30.07,ENE,74,2.0,5.0,80,0.00,,,0.00,VWS V14.01,2013-03-16 00:03:00,
2013-03-15 19:05:00,24.5,14.8,30.06,ENE,72,5.0,11.0,66,0.00,,,0.00,VWS V14.01,2013-03-16 00:05:00,
2013-03-15 19:08:00,21.6,16.4,30.07,ENE,74,7.0,11.0,80,0.00,,,0.00,VWS V14.01,2013-03-16 00:08:00,
2013-03-15 19:10:00,24.5,15.1,30.05,ENE,75,8.0,14.0,67,0.00,,,0.00,VWS V14.01,2013-03-16 00:10:00,
2013-03-15 19:13:00,21.5,16.9,30.07,NE,51,6.0,9.0,82,0.00,,,0.00,VWS V14.01,2013-03-16 00:13:00,
2013-03-15 19:15:00,24.3,15.3,30.06,East,84,3.0,15.0,68,0.00,,,0.00,VWS V14.01,2013-03-16 00:15:00,
2013-03-15 19:18:00,21.4,16.8,30.07,ENE,77,7.0,9.0,82,0.00,,,0.00,VWS V14.01,2013-03-16 00:18:00,
2013-03-15 19:20:00,24.2,15.2,30.06,East,92,7.0,11.0,68,0.00,,,0.00,VWS V14.01,2013-03-16 00:20:00,
2013-03-15 19:23:00,21.3,17.0,30.06,ENE,69,5.0,10.0,83,0.00,,,0.00,VWS V14.01,2013-03-16 00:23:00,
2013-03-15 19:25:00,24.0,15.0,30.05,ESE,107,7.0,12.0,68,0.00,,,0.00,VWS V14.01,2013-03-16 00:25:00,
2013-03-15 19:28:00,21.2,17.1,30.07,East,90,11.0,13.0,84,0.00,,,0.00,VWS V14.01,2013-03-16 00:28:00,
2013-03-15 19:30:00,23.9,15.2,30.05,East,85,10.0,13.0,69,0.00,,,0.00,VWS V14.01,2013-03-16 00:30:00,
2013-03-15 19:33:00,21.1,17.3,30.07,ENE,75,7.0,11.0,85,0.00,,,0.00,VWS V14.01,2013-03-16 00:33:00,
2013-03-15 19:35:00,23.9,15.2,30.05,East,82,3.0,11.0,69,0.00,,,0.00,VWS V14.01,2013-03-16 00:35:00,
2013-03-15 19:38:00,21.1,17.3,30.07,ENE,67,4.0,5.0,85,0.00,,,0.00,VWS V14.01,2013-03-16 00:38:00,
2013-03-15 19:40:00,23.9,15.6,30.04,East,99,10.0,13.0,70,0.00,,,0.00,VWS V14.01,2013-03-16 00:40:00,
2013-03-15 19:44:00,21.0,17.2,30.07,ENE,78,4.0,8.0,85,0.00,,,0.00,VWS V14.01,2013-03-16 00:44:00,
2013-03-15 19:45:00,23.7,15.0,30.04,NE,51,10.0,18.0,69,0.00,,,0.00,VWS V14.01,2013-03-16 00:45:00,
2013-03-15 19:49:00,21.0,17.5,30.07,ENE,71,9.0,9.0,86,0.00,,,0.00,VWS V14.01,2013-03-16 00:49:00,
2013-03-15 19:50:00,23.5,15.2,30.04,East,92,10.0,11.0,70,0.00,,,0.00,VWS V14.01,2013-03-16 00:50:00,
2013-03-15 19:54:00,21.0,17.5,30.07,East,96,6.0,9.0,86,0.00,,,0.00,VWS V14.01,2013-03-16 00:54:00,
2013-03-15 19:55:00,23.3,15.3,30.05,ENE,63,9.0,11.0,71,0.00,,,0.00,VWS V14.01,2013-03-16 00:55:00,
2013-03-15 19:59:00,21.0,17.5,30.07,East,83,6.0,9.0,86,0.00,,,0.00,VWS V14.01,2013-03-16 00:59:00,
2013-03-15 20:00:00,23.2,15.5,30.05,ENE,76,7.0,13.0,72,0.00,,,0.00,VWS V14.01,2013-03-16 01:00:00,
2013-03-15 20:04:00,20.9,17.4,30.07,East,86,7.0,11.0,86,0.00,,,0.00,VWS V14.01,2013-03-16 01:04:00,
2013-03-15 20:05:00,23.0,15.0,30.05,East,87,9.0,13.0,71,0.00,,,0.00,VWS V14.01,2013-03-16 01:05:00,
2013-03-15 20:09:00,20.9,17.4,30.07,ENE,74,4.0,10.0,86,0.00,,,0.00,VWS V14.01,2013-03-16 01:09:00,
2013-03-15 20:10:00,23.0,15.6,30.05,ENE,69,3.0,14.0,73,0.00,,,0.00,VWS V14.01,2013-03-16 01:10:00,
2013-03-15 20:14:00,20.9,17.6,30.06,ENE,67,9.0,11.0,87,0.00,,,0.00,VWS V14.01,2013-03-16 01:14:00,
2013-03-15 20:15:00,22.9,15.9,30.05,ENE,64,8.0,10.0,74,0.00,,,0.00,VWS V14.01,2013-03-16 01:15:00,
2013-03-15 20:19:00,20.8,17.5,30.06,East,84,7.0,11.0,87,0.00,,,0.00,VWS V14.01,2013-03-16 01:19:00,
2013-03-15 20:20:00,22.8,15.8,30.05,East,84,6.0,11.0,74,0.00,,,0.00,VWS V14.01,2013-03-16 01:20:00,
2013-03-15 20:24:00,20.8,17.5,30.06,ENE,71,9.0,15.0,87,0.00,,,0.00,VWS V14.01,2013-03-16 01:24:00,
2013-03-15 20:25:00,22.7,15.7,30.05,ENE,71,3.0,9.0,74,0.00,,,0.00,VWS V14.01,2013-03-16 01:25:00,
2013-03-15 20:29:00,20.7,17.5,30.06,East,84,6.0,13.0,87,0.00,,,0.00,VWS V14.01,2013-03-16 01:29:00,
2013-03-15 20:30:00,22.6,15.6,30.06,East,92,7.0,11.0,74,0.00,,,0.00,VWS V14.01,2013-03-16 01:30:00,
2013-03-15 20:34:00,20.7,17.5,30.06,ENE,59,9.0,11.0,87,0.00,,,0.00,VWS V14.01,2013-03-16 01:34:00,
2013-03-15 20:35:00,22.5,15.5,30.06,ENE,68,9.0,14.0,74,0.00,,,0.00,VWS V14.01,2013-03-16 01:35:00,
2013-03-15 20:40:00,20.6,17.6,30.06,ENE,74,9.0,14.0,88,0.00,,,0.00,VWS V14.01,2013-03-16 01:40:00,
2013-03-15 20:45:00,20.6,17.6,30.06,East,80,9.0,14.0,88,0.00,,,0.00,VWS V14.01,2013-03-16 01:45:00,
2013-03-15 20:50:00,20.6,17.6,30.06,ENE,73,3.0,9.0,88,0.00,,,0.00,VWS V14.01,2013-03-16 01:50:00,
2013-03-15 20:55:00,20.6,17.6,30.06,ENE,75,4.0,11.0,88,0.00,,,0.00,VWS V14.01,2013-03-16 01:55:00,
2013-03-15 21:00:00,20.6,17.6,30.06,ENE,76,4.0,9.0,88,0.00,,,0.00,VWS V14.01,2013-03-16 02:00:00,
2013-03-15 21:05:00,20.7,17.7,30.07,ENE,75,7.0,15.0,88,0.00,,,0.00,VWS V14.01,2013-03-16 02:05:00,
2013-03-15 21:10:00,20.6,17.6,30.06,East,91,7.0,9.0,88,0.00,,,0.00,VWS V14.01,2013-03-16 02:10:00,
2013-03-15 21:15:00,20.6,17.6,30.06,East,96,7.0,9.0,88,0.00,,,0.00,VWS V14.01,2013-03-16 02:15:00,
2013-03-15 21:20:00,20.6,17.6,30.07,East,86,11.0,11.0,88,0.00,,,0.00,VWS V14.01,2013-03-16 02:20:00,
2013-03-15 21:25:00,20.7,17.7,30.07,ENE,72,4.0,13.0,88,0.00,,,0.00,VWS V14.01,2013-03-16 02:25:00,
2013-03-15 21:30:00,20.7,17.7,30.07,East,85,6.0,9.0,88,0.00,,,0.00,VWS V14.01,2013-03-16 02:30:00,
2013-03-15 21:35:00,20.7,17.7,30.07,ENE,72,5.0,10.0,88,0.00,,,0.00,VWS V14.01,2013-03-16 02:35:00,
2013-03-15 21:40:00,20.6,17.6,30.07,East,82,7.0,17.0,88,0.00,,,0.00,VWS V14.01,2013-03-16 02:40:00,
2013-03-15 21:45:00,20.6,17.6,30.07,East,91,7.0,13.0,88,0.00,,,0.00,VWS V14.01,2013-03-16 02:45:00,
2013-03-15 21:50:00,20.5,17.5,30.07,East,86,10.0,11.0,88,0.00,,,0.00,VWS V14.01,2013-03-16 02:50:00,
2013-03-15 21:55:00,20.4,17.4,30.06,ENE,67,5.0,11.0,88,0.00,,,0.00,VWS V14.01,2013-03-16 02:55:00,
2013-03-15 22:00:00,20.9,17.4,30.07,ENE,72,9.0,13.0,86,0.00,,,0.00,VWS V14.01,2013-03-16 03:00:00,
2013-03-15 22:01:00,20.5,17.5,30.06,East,84,9.0,10.0,88,0.00,,,0.00,VWS V14.01,2013-03-16 03:01:00,
2013-03-15 22:05:00,20.9,17.4,30.07,East,83,8.0,11.0,86,0.00,,,0.00,VWS V14.01,2013-03-16 03:05:00,
2013-03-15 22:06:00,20.4,17.4,30.06,East,88,14.0,17.0,88,0.00,,,0.00,VWS V14.01,2013-03-16 03:06:00,
2013-03-15 22:10:00,20.9,17.6,30.07,East,79,7.0,10.0,87,0.00,,,0.00,VWS V14.01,2013-03-16 03:10:00,
2013-03-15 22:11:00,20.5,17.5,30.06,ESE,103,7.0,15.0,88,0.00,,,0.00,VWS V14.01,2013-03-16 03:11:00,
2013-03-15 22:15:00,20.9,17.6,30.06,East,84,8.0,11.0,87,0.00,,,0.00,VWS V14.01,2013-03-16 03:15:00,
2013-03-15 22:16:00,20.5,17.5,30.07,ENE,64,4.0,15.0,88,0.00,,,0.00,VWS V14.01,2013-03-16 03:16:00,
2013-03-15 22:20:00,20.8,17.5,30.06,East,80,8.0,11.0,87,0.00,,,0.00,VWS V14.01,2013-03-16 03:20:00,
2013-03-15 22:22:00,20.3,17.3,30.07,East,86,5.0,13.0,88,0.00,,,0.00,VWS V14.01,2013-03-16 03:22:00,
2013-03-15 22:25:00,20.7,17.5,30.06,ENE,65,7.0,15.0,87,0.00,,,0.00,VWS V14.01,2013-03-16 03:25:00,
2013-03-15 22:27:00,20.2,17.2,30.07,ENE,67,9.0,9.0,88,0.00,,,0.00,VWS V14.01,2013-03-16 03:27:00,
2013-03-15 22:30:00,20.7,17.5,30.06,East,87,6.0,13.0,87,0.00,,,0.00,VWS V14.01,2013-03-16 03:30:00,
2013-03-15 22:32:00,20.2,17.2,30.07,ENE,78,10.0,13.0,88,0.00,,,0.00,VWS V14.01,2013-03-16 03:32:00,
2013-03-15 22:35:00,20.7,17.7,30.06,East,83,11.0,11.0,88,0.00,,,0.00,VWS V14.01,2013-03-16 03:35:00,
2013-03-15 22:37:00,20.2,17.2,30.07,ENE,61,8.0,8.0,88,0.00,,,0.00,VWS V14.01,2013-03-16 03:37:00,
2013-03-15 22:40:00,20.6,17.6,30.06,East,84,14.0,14.0,88,0.00,,,0.00,VWS V14.01,2013-03-16 03:40:00,
2013-03-15 22:42:00,20.2,17.2,30.08,East,80,7.0,7.0,88,0.00,,,0.00,VWS V14.01,2013-03-16 03:42:00,
2013-03-15 22:45:00,20.6,17.6,30.06,NE,56,8.0,14.0,88,0.00,,,0.00,VWS V14.01,2013-03-16 03:45:00,
2013-03-15 22:47:00,20.1,17.1,30.07,East,86,8.0,8.0,88,0.00,,,0.00,VWS V14.01,2013-03-16 03:47:00,
2013-03-15 22:50:00,20.6,17.6,30.06,ENE,72,5.0,9.0,88,0.00,,,0.00,VWS V14.01,2013-03-16 03:50:00,
2013-03-15 22:52:00,20.1,17.1,30.07,ESE,114,4.0,7.0,88,0.00,,,0.00,VWS V14.01,2013-03-16 03:52:00,
2013-03-15 22:55:00,20.6,17.6,30.06,NE,51,3.0,11.0,88,0.00,,,0.00,VWS V14.01,2013-03-16 03:55:00,
2013-03-15 22:57:00,20.0,17.0,30.07,East,82,7.0,7.0,88,0.00,,,0.00,VWS V14.01,2013-03-16 03:57:00,
2013-03-15 23:00:00,20.0,17.0,30.07,East,79,6.0,7.0,88,0.00,,,0.00,VWS V14.01,2013-03-16 04:00:00,
2013-03-15 23:02:00,20.0,17.0,30.07,East,79,5.0,10.0,88,0.00,,,0.00,VWS V14.01,2013-03-16 04:02:00,
2013-03-15 23:05:00,20.7,17.7,30.07,East,80,6.0,15.0,88,0.00,,,0.00,VWS V14.01,2013-03-16 04:05:00,
2013-03-15 23:07:00,20.1,17.1,30.07,ENE,69,5.0,11.0,88,0.00,,,0.00,VWS V14.01,2013-03-16 04:07:00,
2013-03-15 23:10:00,20.6,17.6,30.06,East,93,7.0,9.0,88,0.00,,,0.00,VWS V14.01,2013-03-16 04:10:00,
2013-03-15 23:12:00,20.2,17.5,30.07,East,83,13.0,13.0,89,0.00,,,0.00,VWS V14.01,2013-03-16 04:12:00,
2013-03-15 23:15:00,20.6,17.6,30.06,ENE,64,3.0,9.0,88,0.00,,,0.00,VWS V14.01,2013-03-16 04:15:00,
2013-03-15 23:17:00,20.4,17.7,30.07,ENE,74,9.0,9.0,89,0.00,,,0.00,VWS V14.01,2013-03-16 04:17:00,
2013-03-15 23:20:00,20.7,17.7,30.07,East,86,6.0,11.0,88,0.00,,,0.00,VWS V14.01,2013-03-16 04:20:00,
2013-03-15 23:22:00,20.5,17.8,30.07,ENE,63,8.0,11.0,89,0.00,,,0.00,VWS V14.01,2013-03-16 04:22:00,
2013-03-15 23:25:00,20.7,17.7,30.07,East,83,8.0,13.0,88,0.00,,,0.00,VWS V14.01,2013-03-16 04:25:00,
2013-03-15 23:27:00,20.4,17.7,30.07,ENE,74,9.0,9.0,89,0.00,,,0.00,VWS V14.01,2013-03-16 04:27:00,
2013-03-15 23:30:00,20.7,17.7,30.07,ENE,72,5.0,11.0,88,0.00,,,0.00,VWS V14.01,2013-03-16 04:30:00,
2013-03-15 23:32:00,20.3,17.6,30.07,ENE,77,3.0,6.0,89,0.00,,,0.00,VWS V14.01,2013-03-16 04:32:00,
2013-03-15 23:35:00,20.7,17.7,30.07,ENE,67,3.0,10.0,88,0.00,,,0.00,VWS V14.01,2013-03-16 04:35:00,
2013-03-15 23:37:00,20.2,17.5,30.07,NE,45,5.0,6.0,89,0.00,,,0.00,VWS V14.01,2013-03-16 04:37:00,
2013-03-15 23:40:00,20.6,17.6,30.07,East,82,10.0,17.0,88,0.00,,,0.00,VWS V14.01,2013-03-16 04:40:00,
2013-03-15 23:42:00,20.0,17.3,30.07,ENE,67,4.0,7.0,89,0.00,,,0.00,VWS V14.01,2013-03-16 04:42:00,
2013-03-15 23:45:00,20.5,17.5,30.07,ENE,65,4.0,13.0,88,0.00,,,0.00,VWS V14.01,2013-03-16 04:45:00,
2013-03-15 23:47:00,19.9,16.9,30.07,ENE,64,3.0,8.0,88,0.00,,,0.00,VWS V14.01,2013-03-16 04:47:00,
2013-03-15 23:50:00,20.4,17.4,30.07,East,96,6.0,11.0,88,0.00,,,0.00,VWS V14.01,2013-03-16 04:50:00,
2013-03-15 23:52:00,19.9,16.9,30.07,ENE,67,8.0,8.0,88,0.00,,,0.00,VWS V14.01,2013-03-16 04:52:00,
2013-03-15 23:55:00,20.5,17.5,30.06,ENE,69,7.0,11.0,88,0.00,,,0.00,VWS V14.01,2013-03-16 04:55:00,
2013-03-15 23:57:00,20.0,17.0,30.07,East,82,13.0,13.0,88,0.00,,,0.00,VWS V14.01,2013-03-16 04:57:00,